DLH4YA LOWS-LYTV
Flight info
| Callsign | DLH4YA |
|---|---|
| Flight time | 1h 13m |
| Altitude | 37000 |
| Route | VERDA DCT DARZA DCT NERRA DCT TIBRI L187 TAZ |
| Aircraft | A319/M-SDE3FGHIRWY/LB1 |
Departure
| Time | 2026-05-08 20:03 |
|---|---|
| Airport | Salzburg Airport (LOWS) |
Arrival
| Time | 2026-05-08 21:16 |
|---|---|
| Airport | Tivat Airport (LYTV) |
| Time | Latitude | Longitude | Altitude | Speed | Heading |
|---|---|---|---|---|---|
| 2026-05-08 19:42 | 47.78974 | 13.00023 | 1420 ft | 0 kts | 283° |
| 2026-05-08 19:57 | 47.78975 | 13.00021 | 1420 ft | 0 kts | 292° |
| 2026-05-08 19:57 | 47.78982 | 13.00019 | 1422 ft | 2 kts | 347° |
| 2026-05-08 19:57 | 47.78991 | 13.00046 | 1423 ft | 5 kts | 88° |
| 2026-05-08 19:57 | 47.78990 | 13.00105 | 1420 ft | 6 kts | 84° |
| 2026-05-08 19:58 | 47.79024 | 13.00112 | 1420 ft | 6 kts | 338° |
| 2026-05-08 19:58 | 47.79073 | 13.00082 | 1421 ft | 9 kts | 336° |
| 2026-05-08 19:58 | 47.79136 | 13.00042 | 1420 ft | 11 kts | 337° |
| 2026-05-08 19:58 | 47.79214 | 12.99993 | 1420 ft | 13 kts | 337° |
| 2026-05-08 19:59 | 47.79296 | 12.99945 | 1420 ft | 12 kts | 355° |
| 2026-05-08 19:59 | 47.79348 | 13.00039 | 1420 ft | 14 kts | 67° |
| 2026-05-08 19:59 | 47.79426 | 13.00070 | 1420 ft | 14 kts | 338° |
| 2026-05-08 19:59 | 47.79525 | 13.00008 | 1420 ft | 16 kts | 337° |
| 2026-05-08 20:00 | 47.79635 | 12.99937 | 1420 ft | 18 kts | 336° |
| 2026-05-08 20:00 | 47.79758 | 12.99860 | 1420 ft | 20 kts | 337° |
| 2026-05-08 20:00 | 47.79892 | 12.99775 | 1420 ft | 22 kts | 336° |
| 2026-05-08 20:00 | 47.80036 | 12.99684 | 1420 ft | 23 kts | 337° |
| 2026-05-08 20:01 | 47.80172 | 12.99598 | 1420 ft | 17 kts | 340° |
| 2026-05-08 20:01 | 47.80269 | 12.99662 | 1421 ft | 17 kts | 64° |
| 2026-05-08 20:01 | 47.80288 | 12.99789 | 1420 ft | 11 kts | 132° |
| 2026-05-08 20:01 | 47.80251 | 12.99813 | 1420 ft | 0 kts | 156° |
| 2026-05-08 20:03 | 47.80146 | 12.99879 | 1421 ft | 52 kts | 156° |
| 2026-05-08 20:03 | 47.79583 | 13.00235 | 1422 ft | 121 kts | 157° |
| 2026-05-08 20:03 | 47.78636 | 13.00838 | 1477 ft | 166 kts | 156° |
| 2026-05-08 20:03 | 47.77605 | 13.01566 | 2092 ft | 164 kts | 146° |
| 2026-05-08 20:04 | 47.76651 | 13.02508 | 2724 ft | 167 kts | 143° |
| 2026-05-08 20:04 | 47.75660 | 13.03540 | 3114 ft | 186 kts | 143° |
| 2026-05-08 20:04 | 47.74535 | 13.04704 | 3436 ft | 211 kts | 143° |
| 2026-05-08 20:04 | 47.73271 | 13.06026 | 3910 ft | 233 kts | 143° |
| 2026-05-08 20:05 | 47.71884 | 13.07475 | 4440 ft | 255 kts | 144° |
| 2026-05-08 20:05 | 47.70334 | 13.08864 | 5261 ft | 263 kts | 150° |
| 2026-05-08 20:05 | 47.68707 | 13.10167 | 6222 ft | 267 kts | 152° |
| 2026-05-08 20:05 | 47.67041 | 13.11415 | 7146 ft | 270 kts | 154° |
| 2026-05-08 20:06 | 47.65318 | 13.12621 | 7992 ft | 277 kts | 155° |
| 2026-05-08 20:06 | 47.63556 | 13.13829 | 8873 ft | 282 kts | 155° |
| 2026-05-08 20:06 | 47.61793 | 13.15155 | 9764 ft | 287 kts | 147° |
| 2026-05-08 20:06 | 47.60298 | 13.17154 | 10511 ft | 297 kts | 131° |
| 2026-05-08 20:07 | 47.59177 | 13.19869 | 10823 ft | 322 kts | 115° |
| 2026-05-08 20:07 | 47.58130 | 13.22917 | 11138 ft | 343 kts | 120° |
| 2026-05-08 20:07 | 47.56827 | 13.26014 | 11394 ft | 364 kts | 124° |
| 2026-05-08 20:07 | 47.55383 | 13.29148 | 11974 ft | 372 kts | 126° |
| 2026-05-08 20:08 | 47.53714 | 13.32088 | 12663 ft | 376 kts | 136° |
| 2026-05-08 20:08 | 47.51690 | 13.34570 | 13347 ft | 380 kts | 146° |
| 2026-05-08 20:08 | 47.49425 | 13.36610 | 14023 ft | 384 kts | 151° |
| 2026-05-08 20:08 | 47.47101 | 13.38597 | 14659 ft | 388 kts | 150° |
| 2026-05-08 20:09 | 47.44759 | 13.40616 | 15320 ft | 391 kts | 150° |
| 2026-05-08 20:09 | 47.42406 | 13.42644 | 15972 ft | 393 kts | 150° |
| 2026-05-08 20:09 | 47.40032 | 13.44689 | 16637 ft | 397 kts | 150° |
| 2026-05-08 20:09 | 47.37635 | 13.46745 | 17276 ft | 400 kts | 150° |
| 2026-05-08 20:10 | 47.35221 | 13.48810 | 17922 ft | 403 kts | 150° |
| 2026-05-08 20:10 | 47.32811 | 13.50865 | 18493 ft | 407 kts | 151° |
| 2026-05-08 20:10 | 47.30317 | 13.52988 | 19046 ft | 410 kts | 151° |
| 2026-05-08 20:10 | 47.27874 | 13.55064 | 19573 ft | 413 kts | 151° |
| 2026-05-08 20:11 | 47.25376 | 13.57181 | 20094 ft | 416 kts | 151° |
| 2026-05-08 20:11 | 47.22859 | 13.59312 | 20623 ft | 418 kts | 151° |
| 2026-05-08 20:11 | 47.20332 | 13.61449 | 21134 ft | 421 kts | 151° |
| 2026-05-08 20:11 | 47.17779 | 13.63606 | 21632 ft | 424 kts | 151° |
| 2026-05-08 20:12 | 47.15212 | 13.65768 | 22135 ft | 427 kts | 151° |
| 2026-05-08 20:12 | 47.12630 | 13.67943 | 22607 ft | 429 kts | 151° |
| 2026-05-08 20:12 | 47.10034 | 13.70126 | 23061 ft | 432 kts | 151° |
| 2026-05-08 20:12 | 47.07418 | 13.72324 | 23516 ft | 434 kts | 151° |
| 2026-05-08 20:13 | 47.04793 | 13.74528 | 23921 ft | 437 kts | 151° |
| 2026-05-08 20:13 | 47.02150 | 13.76746 | 24309 ft | 439 kts | 152° |
| 2026-05-08 20:13 | 46.99491 | 13.78973 | 24689 ft | 441 kts | 152° |
| 2026-05-08 20:13 | 46.96819 | 13.81212 | 25050 ft | 443 kts | 152° |
| 2026-05-08 20:14 | 46.94134 | 13.83460 | 25389 ft | 446 kts | 152° |
| 2026-05-08 20:14 | 46.91435 | 13.85716 | 25749 ft | 448 kts | 152° |
| 2026-05-08 20:14 | 46.88730 | 13.87974 | 26086 ft | 450 kts | 152° |
| 2026-05-08 20:14 | 46.86002 | 13.90247 | 26431 ft | 452 kts | 152° |
| 2026-05-08 20:15 | 46.83267 | 13.92525 | 26781 ft | 454 kts | 153° |
| 2026-05-08 20:15 | 46.80521 | 13.94809 | 27113 ft | 456 kts | 153° |
| 2026-05-08 20:15 | 46.77758 | 13.97100 | 27432 ft | 458 kts | 153° |
| 2026-05-08 20:15 | 46.74984 | 13.99397 | 27798 ft | 458 kts | 153° |
| 2026-05-08 20:16 | 46.72204 | 14.01696 | 28135 ft | 460 kts | 154° |
| 2026-05-08 20:16 | 46.69417 | 14.04002 | 28439 ft | 462 kts | 154° |
| 2026-05-08 20:16 | 46.66631 | 14.06306 | 28917 ft | 460 kts | 154° |
| 2026-05-08 20:16 | 46.63850 | 14.08611 | 29410 ft | 458 kts | 154° |
| 2026-05-08 20:17 | 46.61090 | 14.10897 | 29878 ft | 457 kts | 154° |
| 2026-05-08 20:17 | 46.58361 | 14.13146 | 30309 ft | 456 kts | 154° |
| 2026-05-08 20:17 | 46.55605 | 14.15410 | 30705 ft | 454 kts | 154° |
| 2026-05-08 20:17 | 46.52854 | 14.17665 | 31109 ft | 454 kts | 155° |
| 2026-05-08 20:18 | 46.50108 | 14.19912 | 31492 ft | 453 kts | 155° |
| 2026-05-08 20:18 | 46.47363 | 14.22159 | 31805 ft | 453 kts | 155° |
| 2026-05-08 20:18 | 46.44621 | 14.24404 | 32206 ft | 452 kts | 154° |
| 2026-05-08 20:18 | 46.41891 | 14.26639 | 32617 ft | 450 kts | 154° |
| 2026-05-08 20:19 | 46.39162 | 14.28873 | 32986 ft | 450 kts | 154° |
| 2026-05-08 20:19 | 46.36441 | 14.31099 | 33401 ft | 449 kts | 155° |
| 2026-05-08 20:19 | 46.33726 | 14.33316 | 33802 ft | 448 kts | 155° |
| 2026-05-08 20:19 | 46.31011 | 14.35527 | 34204 ft | 447 kts | 155° |
| 2026-05-08 20:20 | 46.28301 | 14.37728 | 34533 ft | 447 kts | 155° |
| 2026-05-08 20:20 | 46.25582 | 14.39933 | 34792 ft | 448 kts | 155° |
| 2026-05-08 20:20 | 46.22854 | 14.42144 | 35023 ft | 451 kts | 155° |
| 2026-05-08 20:20 | 46.20117 | 14.44360 | 35267 ft | 452 kts | 154° |
| 2026-05-08 20:21 | 46.17369 | 14.46585 | 35525 ft | 453 kts | 154° |
| 2026-05-08 20:21 | 46.14614 | 14.48811 | 35764 ft | 453 kts | 154° |
| 2026-05-08 20:21 | 46.11861 | 14.51030 | 36040 ft | 453 kts | 154° |
| 2026-05-08 20:21 | 46.09107 | 14.53249 | 36286 ft | 454 kts | 154° |
| 2026-05-08 20:22 | 46.06351 | 14.55469 | 36515 ft | 455 kts | 154° |
| 2026-05-08 20:22 | 46.03587 | 14.57697 | 36729 ft | 455 kts | 154° |
| 2026-05-08 20:22 | 46.00819 | 14.59924 | 36893 ft | 457 kts | 154° |
| 2026-05-08 20:22 | 45.98979 | 14.61401 | 37010 ft | 458 kts | 154° |
| 2026-05-08 20:23 | 45.92440 | 14.66637 | 37081 ft | 461 kts | 154° |
| 2026-05-08 20:23 | 45.86837 | 14.71123 | 37076 ft | 461 kts | 154° |
| 2026-05-08 20:24 | 45.81237 | 14.75585 | 37081 ft | 459 kts | 154° |
| 2026-05-08 20:24 | 45.75693 | 14.80000 | 37082 ft | 459 kts | 154° |
| 2026-05-08 20:25 | 45.70115 | 14.84440 | 37079 ft | 459 kts | 154° |
| 2026-05-08 20:25 | 45.64522 | 14.88868 | 37082 ft | 459 kts | 154° |
| 2026-05-08 20:26 | 45.58932 | 14.93287 | 37085 ft | 459 kts | 154° |
| 2026-05-08 20:26 | 45.53330 | 14.97698 | 37057 ft | 460 kts | 154° |
| 2026-05-08 20:27 | 45.47841 | 15.02410 | 37080 ft | 463 kts | 147° |
| 2026-05-08 20:27 | 45.42636 | 15.07798 | 37082 ft | 463 kts | 147° |
| 2026-05-08 20:28 | 45.37417 | 15.13198 | 37096 ft | 463 kts | 147° |
| 2026-05-08 20:28 | 45.32192 | 15.18563 | 37072 ft | 464 kts | 148° |
| 2026-05-08 20:29 | 45.26954 | 15.23924 | 37084 ft | 465 kts | 148° |
| 2026-05-08 20:29 | 45.21710 | 15.29294 | 37083 ft | 465 kts | 148° |
| 2026-05-08 20:30 | 45.16464 | 15.34658 | 37084 ft | 465 kts | 148° |
| 2026-05-08 20:30 | 45.11240 | 15.39989 | 37066 ft | 466 kts | 148° |
| 2026-05-08 20:31 | 45.05972 | 15.45346 | 37071 ft | 467 kts | 148° |
| 2026-05-08 20:31 | 45.00689 | 15.50702 | 37071 ft | 467 kts | 148° |
| 2026-05-08 20:32 | 44.95410 | 15.56041 | 37088 ft | 467 kts | 148° |
| 2026-05-08 20:32 | 44.90125 | 15.61360 | 37094 ft | 466 kts | 148° |
| 2026-05-08 20:33 | 44.84838 | 15.66678 | 37081 ft | 467 kts | 148° |
| 2026-05-08 20:33 | 44.79546 | 15.71995 | 37081 ft | 468 kts | 148° |
| 2026-05-08 20:34 | 44.74278 | 15.77281 | 37080 ft | 468 kts | 148° |
| 2026-05-08 20:35 | 44.66320 | 15.85242 | 37085 ft | 468 kts | 148° |
| 2026-05-08 20:35 | 44.61013 | 15.90529 | 37077 ft | 468 kts | 148° |
| 2026-05-08 20:36 | 44.55691 | 15.95822 | 37073 ft | 469 kts | 148° |
| 2026-05-08 20:36 | 44.50357 | 16.01113 | 37070 ft | 470 kts | 148° |
| 2026-05-08 20:37 | 44.45029 | 16.06393 | 37085 ft | 469 kts | 148° |
| 2026-05-08 20:37 | 44.40597 | 16.10768 | 37071 ft | 470 kts | 149° |
| 2026-05-08 20:38 | 44.35242 | 16.16041 | 37064 ft | 471 kts | 149° |
| 2026-05-08 20:38 | 44.29882 | 16.21314 | 37064 ft | 472 kts | 149° |
| 2026-05-08 20:39 | 44.24504 | 16.26604 | 37073 ft | 472 kts | 149° |
| 2026-05-08 20:39 | 44.19133 | 16.31858 | 37060 ft | 472 kts | 149° |
| 2026-05-08 20:40 | 44.13748 | 16.37107 | 37058 ft | 473 kts | 149° |
| 2026-05-08 20:40 | 44.08352 | 16.42365 | 37055 ft | 474 kts | 149° |
| 2026-05-08 20:41 | 44.02945 | 16.47627 | 37056 ft | 475 kts | 149° |
| 2026-05-08 20:41 | 43.97527 | 16.52885 | 37055 ft | 475 kts | 149° |
| 2026-05-08 20:42 | 43.92105 | 16.58140 | 37051 ft | 476 kts | 149° |
| 2026-05-08 20:42 | 43.86672 | 16.63382 | 37053 ft | 476 kts | 149° |
| 2026-05-08 20:43 | 43.81267 | 16.68586 | 37048 ft | 476 kts | 149° |
| 2026-05-08 20:43 | 43.75818 | 16.73823 | 37034 ft | 477 kts | 150° |
| 2026-05-08 20:44 | 43.70363 | 16.79061 | 37029 ft | 478 kts | 150° |
| 2026-05-08 20:44 | 43.64897 | 16.84297 | 37068 ft | 477 kts | 150° |
| 2026-05-08 20:45 | 43.59453 | 16.89493 | 37090 ft | 474 kts | 150° |
| 2026-05-08 20:45 | 43.54042 | 16.94643 | 37085 ft | 472 kts | 150° |
| 2026-05-08 20:46 | 43.48653 | 16.99763 | 37076 ft | 470 kts | 150° |
| 2026-05-08 20:46 | 43.43272 | 17.04874 | 37073 ft | 469 kts | 150° |
| 2026-05-08 20:47 | 43.37906 | 17.09963 | 37061 ft | 468 kts | 150° |
| 2026-05-08 20:47 | 43.32541 | 17.15036 | 37065 ft | 467 kts | 150° |
| 2026-05-08 20:48 | 43.27241 | 17.20029 | 37042 ft | 460 kts | 150° |
| 2026-05-08 20:48 | 43.21961 | 17.24989 | 37041 ft | 459 kts | 150° |
| 2026-05-08 20:49 | 43.16687 | 17.29929 | 37042 ft | 459 kts | 150° |
| 2026-05-08 20:49 | 43.11408 | 17.34872 | 36929 ft | 462 kts | 150° |
| 2026-05-08 20:49 | 43.08754 | 17.37355 | 36527 ft | 461 kts | 150° |
| 2026-05-08 20:50 | 43.06103 | 17.39831 | 36248 ft | 462 kts | 150° |
| 2026-05-08 20:50 | 43.03446 | 17.42313 | 35987 ft | 462 kts | 150° |
| 2026-05-08 20:50 | 43.00786 | 17.44794 | 35745 ft | 463 kts | 150° |
| 2026-05-08 20:50 | 42.98124 | 17.47275 | 35457 ft | 465 kts | 150° |
| 2026-05-08 20:51 | 42.95421 | 17.49785 | 34487 ft | 475 kts | 150° |
| 2026-05-08 20:51 | 42.92709 | 17.52425 | 33545 ft | 484 kts | 145° |
| 2026-05-08 20:51 | 42.90251 | 17.55567 | 32409 ft | 497 kts | 135° |
| 2026-05-08 20:51 | 42.88113 | 17.59314 | 31350 ft | 505 kts | 126° |
| 2026-05-08 20:52 | 42.86200 | 17.63347 | 30471 ft | 506 kts | 125° |
| 2026-05-08 20:52 | 42.84285 | 17.67350 | 29689 ft | 502 kts | 125° |
| 2026-05-08 20:52 | 42.82372 | 17.71309 | 28841 ft | 499 kts | 125° |
| 2026-05-08 20:52 | 42.80460 | 17.75233 | 28034 ft | 495 kts | 125° |
| 2026-05-08 20:53 | 42.78562 | 17.79113 | 27250 ft | 489 kts | 125° |
| 2026-05-08 20:53 | 42.76685 | 17.82949 | 26504 ft | 484 kts | 125° |
| 2026-05-08 20:53 | 42.74836 | 17.86744 | 25758 ft | 478 kts | 125° |
| 2026-05-08 20:53 | 42.73015 | 17.90491 | 25039 ft | 473 kts | 125° |
| 2026-05-08 20:54 | 42.71210 | 17.94198 | 24343 ft | 467 kts | 125° |
| 2026-05-08 20:54 | 42.69424 | 17.97859 | 23659 ft | 462 kts | 125° |
| 2026-05-08 20:54 | 42.67653 | 18.01487 | 22858 ft | 457 kts | 125° |
| 2026-05-08 20:54 | 42.65907 | 18.05057 | 22048 ft | 447 kts | 125° |
| 2026-05-08 20:55 | 42.64217 | 18.08511 | 21282 ft | 433 kts | 125° |
| 2026-05-08 20:55 | 42.62572 | 18.11867 | 20544 ft | 422 kts | 125° |
| 2026-05-08 20:55 | 42.60958 | 18.15151 | 19810 ft | 415 kts | 125° |
| 2026-05-08 20:55 | 42.59366 | 18.18384 | 19097 ft | 409 kts | 125° |
| 2026-05-08 20:56 | 42.57796 | 18.21582 | 18400 ft | 406 kts | 124° |
| 2026-05-08 20:56 | 42.56236 | 18.24762 | 17630 ft | 406 kts | 124° |
| 2026-05-08 20:56 | 42.54657 | 18.27965 | 16839 ft | 409 kts | 124° |
| 2026-05-08 20:56 | 42.53078 | 18.31160 | 16371 ft | 405 kts | 125° |
| 2026-05-08 20:57 | 42.51532 | 18.34287 | 16111 ft | 394 kts | 125° |
| 2026-05-08 20:57 | 42.50016 | 18.37354 | 15860 ft | 389 kts | 124° |
| 2026-05-08 20:57 | 42.48537 | 18.40348 | 15619 ft | 386 kts | 124° |
| 2026-05-08 20:57 | 42.47026 | 18.43406 | 15373 ft | 385 kts | 124° |
| 2026-05-08 20:58 | 42.45563 | 18.46355 | 15127 ft | 381 kts | 125° |
| 2026-05-08 20:58 | 42.44088 | 18.49320 | 14870 ft | 378 kts | 125° |
| 2026-05-08 20:58 | 42.42627 | 18.52255 | 14561 ft | 372 kts | 124° |
| 2026-05-08 20:58 | 42.41031 | 18.55007 | 13853 ft | 374 kts | 137° |
| 2026-05-08 20:59 | 42.38905 | 18.56985 | 13235 ft | 370 kts | 154° |
| 2026-05-08 20:59 | 42.36609 | 18.58523 | 12703 ft | 365 kts | 154° |
| 2026-05-08 20:59 | 42.34348 | 18.60037 | 12153 ft | 361 kts | 154° |
| 2026-05-08 20:59 | 42.32111 | 18.61533 | 11607 ft | 356 kts | 153° |
| 2026-05-08 21:00 | 42.29900 | 18.63009 | 11034 ft | 353 kts | 153° |
| 2026-05-08 21:00 | 42.27728 | 18.64486 | 10670 ft | 344 kts | 153° |
| 2026-05-08 21:00 | 42.25664 | 18.65976 | 10553 ft | 328 kts | 152° |
| 2026-05-08 21:00 | 42.23708 | 18.67434 | 10429 ft | 315 kts | 151° |
| 2026-05-08 21:01 | 42.21829 | 18.68846 | 10313 ft | 303 kts | 151° |
| 2026-05-08 21:01 | 42.20019 | 18.70201 | 10174 ft | 293 kts | 151° |
| 2026-05-08 21:01 | 42.18252 | 18.71518 | 10029 ft | 287 kts | 151° |
| 2026-05-08 21:01 | 42.16508 | 18.72808 | 9915 ft | 286 kts | 152° |
| 2026-05-08 21:02 | 42.14732 | 18.74075 | 9434 ft | 288 kts | 156° |
| 2026-05-08 21:02 | 42.12882 | 18.75042 | 9072 ft | 285 kts | 159° |
| 2026-05-08 21:02 | 42.11033 | 18.75993 | 8636 ft | 284 kts | 158° |
| 2026-05-08 21:02 | 42.09368 | 18.77366 | 8204 ft | 281 kts | 133° |
| 2026-05-08 21:03 | 42.08388 | 18.79557 | 7790 ft | 279 kts | 105° |
| 2026-05-08 21:03 | 42.08294 | 18.82125 | 7382 ft | 276 kts | 77° |
| 2026-05-08 21:03 | 42.08926 | 18.84505 | 7240 ft | 264 kts | 68° |
| 2026-05-08 21:03 | 42.09785 | 18.86616 | 7113 ft | 253 kts | 49° |
| 2026-05-08 21:04 | 42.11147 | 18.88024 | 6927 ft | 245 kts | 25° |
| 2026-05-08 21:04 | 42.12796 | 18.88521 | 6620 ft | 245 kts | 1° |
| 2026-05-08 21:04 | 42.14453 | 18.88037 | 6279 ft | 247 kts | 336° |
| 2026-05-08 21:04 | 42.15855 | 18.86694 | 5886 ft | 249 kts | 321° |
| 2026-05-08 21:05 | 42.17317 | 18.85510 | 5487 ft | 245 kts | 342° |
| 2026-05-08 21:05 | 42.18921 | 18.84739 | 5122 ft | 245 kts | 342° |
| 2026-05-08 21:05 | 42.20519 | 18.83955 | 4766 ft | 244 kts | 342° |
| 2026-05-08 21:05 | 42.22106 | 18.83159 | 4391 ft | 243 kts | 341° |
| 2026-05-08 21:06 | 42.23704 | 18.82349 | 3792 ft | 248 kts | 340° |
| 2026-05-08 21:06 | 42.25334 | 18.81515 | 3123 ft | 252 kts | 340° |
| 2026-05-08 21:06 | 42.26971 | 18.80674 | 2556 ft | 250 kts | 339° |
| 2026-05-08 21:06 | 42.28502 | 18.79750 | 2349 ft | 232 kts | 327° |
| 2026-05-08 21:07 | 42.29755 | 18.78580 | 2315 ft | 211 kts | 326° |
| 2026-05-08 21:07 | 42.30918 | 18.77514 | 2359 ft | 184 kts | 326° |
| 2026-05-08 21:07 | 42.31898 | 18.76623 | 2323 ft | 160 kts | 326° |
| 2026-05-08 21:07 | 42.32748 | 18.75780 | 2322 ft | 145 kts | 316° |
| 2026-05-08 21:08 | 42.33400 | 18.74794 | 2313 ft | 138 kts | 310° |
| 2026-05-08 21:08 | 42.34003 | 18.73798 | 2304 ft | 136 kts | 309° |
| 2026-05-08 21:08 | 42.34596 | 18.72809 | 2312 ft | 135 kts | 309° |
| 2026-05-08 21:08 | 42.35182 | 18.71814 | 2308 ft | 135 kts | 306° |
| 2026-05-08 21:09 | 42.35568 | 18.70654 | 2307 ft | 136 kts | 287° |
| 2026-05-08 21:09 | 42.35798 | 18.69415 | 2307 ft | 136 kts | 283° |
| 2026-05-08 21:09 | 42.36011 | 18.68174 | 2310 ft | 135 kts | 285° |
| 2026-05-08 21:09 | 42.36260 | 18.66946 | 2306 ft | 135 kts | 286° |
| 2026-05-08 21:10 | 42.36518 | 18.65719 | 2309 ft | 136 kts | 286° |
| 2026-05-08 21:10 | 42.36778 | 18.64494 | 2307 ft | 136 kts | 286° |
| 2026-05-08 21:10 | 42.37042 | 18.63271 | 2309 ft | 136 kts | 287° |
| 2026-05-08 21:10 | 42.37488 | 18.62149 | 2315 ft | 136 kts | 303° |
| 2026-05-08 21:11 | 42.38017 | 18.61095 | 2316 ft | 135 kts | 305° |
| 2026-05-08 21:11 | 42.38552 | 18.60051 | 2312 ft | 135 kts | 305° |
| 2026-05-08 21:11 | 42.39087 | 18.59009 | 2312 ft | 135 kts | 305° |
| 2026-05-08 21:11 | 42.39622 | 18.57964 | 2306 ft | 135 kts | 305° |
| 2026-05-08 21:12 | 42.40156 | 18.56919 | 2303 ft | 135 kts | 306° |
| 2026-05-08 21:12 | 42.40875 | 18.56113 | 2234 ft | 136 kts | 333° |
| 2026-05-08 21:12 | 42.41794 | 18.55896 | 2158 ft | 135 kts | 5° |
| 2026-05-08 21:12 | 42.42610 | 18.56471 | 2016 ft | 136 kts | 49° |
| 2026-05-08 21:13 | 42.42989 | 18.57616 | 1943 ft | 134 kts | 77° |
| 2026-05-08 21:13 | 42.43207 | 18.58845 | 1954 ft | 134 kts | 76° |
| 2026-05-08 21:13 | 42.43427 | 18.60069 | 1910 ft | 134 kts | 75° |
| 2026-05-08 21:13 | 42.43643 | 18.61293 | 1884 ft | 134 kts | 75° |
| 2026-05-08 21:14 | 42.43881 | 18.62510 | 1834 ft | 134 kts | 74° |
| 2026-05-08 21:14 | 42.44135 | 18.63721 | 1660 ft | 134 kts | 73° |
| 2026-05-08 21:14 | 42.44382 | 18.64911 | 1422 ft | 133 kts | 76° |
| 2026-05-08 21:14 | 42.44312 | 18.66172 | 1087 ft | 135 kts | 109° |
| 2026-05-08 21:15 | 42.43943 | 18.67306 | 906 ft | 134 kts | 116° |
| 2026-05-08 21:15 | 42.43463 | 18.68378 | 705 ft | 133 kts | 125° |
| 2026-05-08 21:15 | 42.42891 | 18.69363 | 472 ft | 133 kts | 130° |
| 2026-05-08 21:15 | 42.42234 | 18.70234 | 289 ft | 132 kts | 139° |
| 2026-05-08 21:16 | 42.41544 | 18.71053 | 125 ft | 132 kts | 137° |
| 2026-05-08 21:16 | 42.40857 | 18.71868 | 3 ft | 125 kts | 137° |
| 2026-05-08 21:16 | 42.40301 | 18.72523 | 1 ft | 83 kts | 139° |
| 2026-05-08 21:16 | 42.39976 | 18.72909 | -1 ft | 47 kts | 139° |
| 2026-05-08 21:17 | 42.39787 | 18.73134 | -1 ft | 26 kts | 137° |
| 2026-05-08 21:17 | 42.39703 | 18.73234 | -1 ft | 11 kts | 141° |
| 2026-05-08 21:17 | 42.39636 | 18.73262 | -1 ft | 7 kts | 159° |
| 2026-05-08 21:17 | 42.39651 | 18.73288 | -1 ft | 5 kts | 351° |
| 2026-05-08 21:18 | 42.39687 | 18.73251 | -1 ft | 8 kts | 319° |
| 2026-05-08 21:18 | 42.39738 | 18.73192 | 0 ft | 11 kts | 319° |
| 2026-05-08 21:18 | 42.39805 | 18.73112 | -1 ft | 15 kts | 319° |
| 2026-05-08 21:18 | 42.39891 | 18.73010 | -2 ft | 18 kts | 319° |
| 2026-05-08 21:19 | 42.39990 | 18.72893 | -1 ft | 20 kts | 319° |
| 2026-05-08 21:19 | 42.40101 | 18.72761 | 0 ft | 22 kts | 319° |
| 2026-05-08 21:19 | 42.40220 | 18.72621 | 1 ft | 24 kts | 319° |
| 2026-05-08 21:19 | 42.40349 | 18.72469 | 1 ft | 26 kts | 319° |
| 2026-05-08 21:20 | 42.40492 | 18.72301 | -1 ft | 28 kts | 319° |
| 2026-05-08 21:20 | 42.40645 | 18.72119 | -3 ft | 30 kts | 319° |
| 2026-05-08 21:20 | 42.40793 | 18.71942 | -2 ft | 26 kts | 319° |
| 2026-05-08 21:20 | 42.40908 | 18.71807 | -1 ft | 13 kts | 320° |
| 2026-05-08 21:21 | 42.40982 | 18.71828 | -1 ft | 13 kts | 47° |
| 2026-05-08 21:21 | 42.41029 | 18.71846 | -2 ft | 8 kts | 334° |
| 2026-05-08 21:21 | 42.41081 | 18.71787 | -2 ft | 11 kts | 318° |
| 2026-05-08 21:21 | 42.41143 | 18.71715 | -2 ft | 8 kts | 319° |
| 2026-05-08 21:22 | 42.41181 | 18.71670 | -2 ft | 5 kts | 319° |
| 2026-05-08 21:22 | 42.41193 | 18.71655 | -1 ft | 2 kts | 323° |
| 2026-05-08 21:22 | 42.41209 | 18.71656 | -1 ft | 4 kts | 15° |
| 2026-05-08 21:22 | 42.41221 | 18.71692 | -2 ft | 4 kts | 100° |
| 2026-05-08 21:23 | 42.41206 | 18.71700 | -2 ft | 3 kts | 182° |
| 2026-05-08 21:23 | 42.41201 | 18.71698 | -2 ft | 0 kts | 192° |
| 2026-05-08 21:27 | 42.41211 | 18.71698 | 0 ft | 0 kts | 169° |